createdAt,value
2023-05-17T00:00:03.485Z,6.40
2023-05-17T00:04:05.328Z,6.30
2023-05-17T00:08:07.055Z,6.30
2023-05-17T00:12:08.795Z,6.20
2023-05-17T00:16:10.658Z,6.30
2023-05-17T00:20:12.618Z,6.20
2023-05-17T00:24:14.336Z,6.10
2023-05-17T00:28:16.355Z,6.10
2023-05-17T00:32:18.062Z,6.00
2023-05-17T00:36:19.773Z,5.90
2023-05-17T00:40:21.633Z,5.90
2023-05-17T00:44:23.383Z,5.80
2023-05-17T00:48:26.141Z,5.80
2023-05-17T00:52:28.113Z,5.80
2023-05-17T00:56:31.597Z,5.70
2023-05-17T01:00:33.593Z,5.60
2023-05-17T01:04:36.004Z,5.60
2023-05-17T01:08:37.821Z,5.50
2023-05-17T01:12:58.178Z,5.50
2023-05-17T01:17:06.011Z,5.50
2023-05-17T01:21:34.848Z,5.40
2023-05-17T01:25:51.291Z,5.50
2023-05-17T01:29:56.206Z,5.50
2023-05-17T01:33:58.772Z,5.50
2023-05-17T01:38:00.752Z,5.40
2023-05-17T01:42:16.121Z,5.40
2023-05-17T01:46:23.666Z,5.40
2023-05-17T01:50:29.102Z,5.30
2023-05-17T01:54:36.868Z,5.30
2023-05-17T01:58:48.837Z,5.30
2023-05-17T02:02:50.837Z,5.20
2023-05-17T02:06:52.545Z,5.20
2023-05-17T02:10:54.351Z,5.10
2023-05-17T02:14:56.073Z,5.10
2023-05-17T02:18:57.854Z,5.10
2023-05-17T02:22:59.574Z,5.00
2023-05-17T02:27:01.776Z,5.00
2023-05-17T02:31:03.511Z,5.00
2023-05-17T02:35:05.628Z,5.00
2023-05-17T02:39:07.393Z,4.90
2023-05-17T02:43:09.049Z,4.90
2023-05-17T02:47:10.743Z,4.90
2023-05-17T02:51:12.432Z,4.80
2023-05-17T02:55:14.146Z,4.80
2023-05-17T02:59:15.857Z,4.80
2023-05-17T03:03:17.891Z,4.80
2023-05-17T03:07:19.732Z,4.80
2023-05-17T03:11:21.429Z,4.80
2023-05-17T03:15:23.789Z,4.80
2023-05-17T03:19:25.838Z,4.70
2023-05-17T03:23:27.616Z,4.70
2023-05-17T03:27:30.867Z,4.70
2023-05-17T03:31:32.695Z,4.70
2023-05-17T03:35:34.403Z,4.70
2023-05-17T03:39:36.126Z,4.70
2023-05-17T03:43:37.859Z,4.80
2023-05-17T03:47:39.624Z,4.80
2023-05-17T03:51:41.571Z,4.90
2023-05-17T03:55:43.304Z,5.00
2023-05-17T03:59:45.782Z,5.10
2023-05-17T04:03:47.655Z,5.20
2023-05-17T04:07:49.451Z,5.30
2023-05-17T04:11:51.204Z,5.50
2023-05-17T04:15:53.062Z,5.60
2023-05-17T04:19:55.101Z,5.70
2023-05-17T04:23:56.897Z,5.90
2023-05-17T04:27:58.996Z,6.00
2023-05-17T04:32:00.817Z,6.10
2023-05-17T04:36:02.832Z,6.10
2023-05-17T04:40:06.953Z,6.30
2023-05-17T04:44:08.681Z,6.40
2023-05-17T04:48:10.959Z,6.50
2023-05-17T04:52:12.716Z,6.60
2023-05-17T04:56:14.730Z,6.80
2023-05-17T05:00:17.102Z,6.90
2023-05-17T05:04:18.842Z,6.90
2023-05-17T05:08:20.598Z,7.00
2023-05-17T05:12:22.310Z,7.20
2023-05-17T05:16:25.250Z,7.30
2023-05-17T05:20:28.078Z,7.50
2023-05-17T05:24:30.224Z,7.70
2023-05-17T05:28:31.992Z,7.90
2023-05-17T05:32:33.922Z,8.20
2023-05-17T05:36:35.774Z,8.50
2023-05-17T05:40:37.608Z,8.60
2023-05-17T05:44:39.418Z,8.80
2023-05-17T05:48:42.167Z,9.00
2023-05-17T05:52:43.982Z,9.00
2023-05-17T05:56:45.778Z,9.30
2023-05-17T06:00:48.362Z,9.30
2023-05-17T06:04:50.072Z,9.50
2023-05-17T06:08:51.907Z,9.50
2023-05-17T06:12:53.614Z,9.70
2023-05-17T06:16:55.369Z,9.80
2023-05-17T06:20:57.094Z,10.50
2023-05-17T06:24:58.822Z,11.10
2023-05-17T06:29:00.515Z,12.00
2023-05-17T06:33:05.272Z,12.70
2023-05-17T06:37:07.093Z,13.60
2023-05-17T06:41:08.795Z,13.70
2023-05-17T06:45:11.127Z,13.80
2023-05-17T06:49:12.986Z,13.80
2023-05-17T06:53:14.708Z,12.60
2023-05-17T06:57:16.406Z,12.40
2023-05-17T07:01:18.696Z,11.60
2023-05-17T07:05:21.864Z,11.20
2023-05-17T07:09:23.615Z,11.00
2023-05-17T07:13:25.489Z,11.00
2023-05-17T07:17:27.282Z,11.40
2023-05-17T07:21:29.517Z,11.50
2023-05-17T07:25:31.764Z,12.00
2023-05-17T07:29:33.450Z,12.40
2023-05-17T07:33:35.541Z,12.60
2023-05-17T07:37:37.263Z,12.30
2023-05-17T07:41:39.602Z,11.90
2023-05-17T07:45:43.560Z,11.70
2023-05-17T07:49:45.405Z,11.40
2023-05-17T07:53:47.194Z,11.40
2023-05-17T07:57:48.987Z,11.40
2023-05-17T08:01:50.968Z,11.30
2023-05-17T08:05:53.797Z,11.50
2023-05-17T08:09:56.531Z,12.00
2023-05-17T08:13:58.247Z,11.90
2023-05-17T08:18:02.938Z,11.90
2023-05-17T08:22:06.489Z,12.40
2023-05-17T08:26:08.202Z,13.30
2023-05-17T08:30:14.805Z,13.90
2023-05-17T08:34:19.842Z,13.80
2023-05-17T08:38:22.156Z,13.80
2023-05-17T08:42:27.012Z,14.10
2023-05-17T08:46:29.334Z,14.80
2023-05-17T08:50:32.475Z,15.30
2023-05-17T08:54:34.418Z,15.50
2023-05-17T08:58:54.888Z,15.70
2023-05-17T09:03:00.693Z,16.70
2023-05-17T09:07:02.938Z,17.50
2023-05-17T09:11:04.975Z,17.50
2023-05-17T09:15:17.755Z,17.40
2023-05-17T09:19:19.609Z,16.90
2023-05-17T09:23:22.236Z,17.00
2023-05-17T09:27:23.930Z,16.60
2023-05-17T09:31:25.814Z,16.00
2023-05-17T09:35:37.874Z,15.50
2023-05-17T09:39:40.500Z,15.10
2023-05-17T09:43:42.409Z,14.70
2023-05-17T09:47:44.255Z,15.60
2023-05-17T09:51:49.801Z,15.80
2023-05-17T09:55:54.061Z,15.80
2023-05-17T09:59:57.433Z,15.50
2023-05-17T10:04:03.548Z,15.00
2023-05-17T10:08:07.232Z,14.50
2023-05-17T10:12:11.812Z,15.40
2023-05-17T10:16:14.216Z,16.20
2023-05-17T10:20:17.642Z,15.40
2023-05-17T10:24:21.617Z,15.20
2023-05-17T10:28:23.594Z,16.10
2023-05-17T10:32:28.783Z,16.80
2023-05-17T10:36:31.104Z,16.40
2023-05-17T10:40:33.635Z,15.50
2023-05-17T10:44:37.699Z,15.20
2023-05-17T10:48:40.582Z,14.80
2023-05-17T10:52:47.733Z,15.50
2023-05-17T10:56:50.353Z,16.10
2023-05-17T11:00:55.604Z,15.90
2023-05-17T11:04:58.973Z,15.70
2023-05-17T11:09:17.410Z,15.80
2023-05-17T11:13:28.512Z,16.40
2023-05-17T11:17:54.584Z,16.40
2023-05-17T11:21:56.658Z,16.30
2023-05-17T11:26:22.872Z,16.80
2023-05-17T11:30:28.599Z,16.70
2023-05-17T11:34:33.777Z,16.30
2023-05-17T11:38:36.861Z,17.00
2023-05-17T11:42:39.410Z,16.10
2023-05-17T11:46:41.222Z,16.60
2023-05-17T11:50:44.612Z,16.40
2023-05-17T11:54:47.980Z,16.10
2023-05-17T11:58:52.852Z,16.70
2023-05-17T12:02:55.093Z,16.10
2023-05-17T12:06:58.225Z,16.20
2023-05-17T12:11:00.376Z,17.50
2023-05-17T12:15:02.321Z,17.90
2023-05-17T12:19:04.328Z,18.70
2023-05-17T12:23:06.098Z,19.30
2023-05-17T12:27:08.355Z,19.40
2023-05-17T12:31:17.112Z,19.00
2023-05-17T12:35:18.911Z,19.70
2023-05-17T12:39:23.889Z,19.70
2023-05-17T12:43:26.225Z,19.10
2023-05-17T12:47:32.592Z,19.80
2023-05-17T12:51:45.268Z,19.90
2023-05-17T12:55:48.178Z,19.40
2023-05-17T12:59:52.090Z,19.50
2023-05-17T13:03:53.927Z,18.90
2023-05-17T13:07:55.947Z,19.30
2023-05-17T13:11:59.929Z,18.30
2023-05-17T13:16:02.122Z,17.50
2023-05-17T13:20:06.495Z,17.70
2023-05-17T13:24:10.999Z,18.30
2023-05-17T13:28:12.892Z,17.90
2023-05-17T13:32:14.678Z,17.20
2023-05-17T13:36:16.977Z,17.50
2023-05-17T13:40:18.777Z,18.20
2023-05-17T13:44:20.622Z,18.50
2023-05-17T13:48:23.150Z,18.10
2023-05-17T13:52:25.156Z,17.20
2023-05-17T13:56:27.263Z,17.60
2023-05-17T14:00:29.152Z,18.10
2023-05-17T14:04:31.254Z,18.10
2023-05-17T14:08:33.479Z,18.50
2023-05-17T14:12:35.433Z,18.90
2023-05-17T14:16:37.573Z,18.90
2023-05-17T14:20:39.411Z,19.60
2023-05-17T14:24:41.124Z,19.80
2023-05-17T14:28:42.851Z,20.10
2023-05-17T14:32:44.673Z,20.20
2023-05-17T14:36:46.371Z,20.20
2023-05-17T14:40:48.056Z,20.60
2023-05-17T14:44:50.060Z,20.10
2023-05-17T14:48:52.281Z,20.00
2023-05-17T14:52:54.102Z,19.20
2023-05-17T14:56:57.250Z,19.50
2023-05-17T15:01:04.997Z,19.00
2023-05-17T15:05:07.953Z,17.70
2023-05-17T15:09:12.735Z,18.60
2023-05-17T15:13:14.654Z,18.30
2023-05-17T15:17:16.690Z,18.00
2023-05-17T15:21:18.955Z,17.80
2023-05-17T15:25:21.396Z,17.40
2023-05-17T15:29:23.169Z,16.90
2023-05-17T15:33:25.089Z,16.70
2023-05-17T15:37:26.886Z,16.40
2023-05-17T15:41:31.624Z,15.90
2023-05-17T15:45:33.758Z,15.50
2023-05-17T15:49:35.894Z,15.60
2023-05-17T15:53:38.071Z,15.70
2023-05-17T15:57:39.991Z,15.90
2023-05-17T16:01:42.246Z,15.60
2023-05-17T16:05:43.978Z,15.70
2023-05-17T16:09:45.857Z,15.90
2023-05-17T16:13:47.625Z,15.70
2023-05-17T16:17:51.406Z,15.90
2023-05-17T16:21:53.542Z,15.80
2023-05-17T16:25:56.396Z,15.60
2023-05-17T16:29:58.090Z,15.40
2023-05-17T16:33:59.845Z,15.10
2023-05-17T16:38:01.693Z,14.80
2023-05-17T16:42:03.509Z,14.80
2023-05-17T16:46:05.200Z,14.80
2023-05-17T16:50:07.397Z,14.80
2023-05-17T16:54:09.412Z,14.80
2023-05-17T16:58:11.319Z,14.60
2023-05-17T17:02:13.624Z,14.50
2023-05-17T17:06:15.671Z,14.60
2023-05-17T17:10:17.636Z,14.30
2023-05-17T17:14:19.960Z,14.10
2023-05-17T17:18:21.736Z,14.00
2023-05-17T17:22:23.463Z,14.00
2023-05-17T17:26:26.114Z,14.00
2023-05-17T17:30:28.203Z,14.10
2023-05-17T17:34:30.617Z,14.20
2023-05-17T17:38:32.370Z,14.10
2023-05-17T17:42:34.121Z,14.10
2023-05-17T17:46:35.860Z,14.00
2023-05-17T17:50:37.569Z,14.00
2023-05-17T17:54:39.277Z,13.90
2023-05-17T17:58:41.456Z,13.70
2023-05-17T18:02:43.287Z,13.60
2023-05-17T18:06:45.864Z,13.50
2023-05-17T18:10:47.592Z,13.40
2023-05-17T18:14:49.398Z,13.50
2023-05-17T18:18:51.232Z,13.30
2023-05-17T18:22:53.055Z,13.10
2023-05-17T18:26:54.754Z,13.00
2023-05-17T18:30:57.930Z,12.90
2023-05-17T18:34:59.941Z,12.70
2023-05-17T18:39:01.700Z,12.60
2023-05-17T18:43:03.901Z,12.50
2023-05-17T18:47:06.509Z,12.40
2023-05-17T18:51:08.409Z,12.40
2023-05-17T18:55:10.147Z,12.20
2023-05-17T18:59:11.977Z,12.10
2023-05-17T19:03:14.549Z,11.80
2023-05-17T19:07:16.397Z,11.70
2023-05-17T19:11:18.288Z,11.60
2023-05-17T19:15:20.593Z,11.50
2023-05-17T19:19:23.504Z,11.20
2023-05-17T19:23:25.285Z,11.10
2023-05-17T19:27:27.403Z,10.90
2023-05-17T19:31:29.200Z,10.70
2023-05-17T19:35:30.929Z,10.80
2023-05-17T19:39:32.709Z,10.50
2023-05-17T19:43:35.684Z,10.40
2023-05-17T19:47:37.374Z,10.30
2023-05-17T19:51:39.331Z,10.20
2023-05-17T19:55:41.007Z,10.00
2023-05-17T19:59:42.781Z,9.90
2023-05-17T20:03:44.754Z,9.70
2023-05-17T20:07:46.650Z,9.50
2023-05-17T20:11:48.376Z,9.30
2023-05-17T20:15:50.092Z,9.10
2023-05-17T20:19:51.998Z,8.90
2023-05-17T20:24:00.585Z,8.80
2023-05-17T20:28:02.349Z,8.60
2023-05-17T20:32:04.465Z,8.50
2023-05-17T20:36:06.323Z,8.30
2023-05-17T20:40:09.555Z,8.20
2023-05-17T20:44:12.893Z,8.10
2023-05-17T20:48:14.596Z,8.10
2023-05-17T20:52:19.928Z,7.90
2023-05-17T20:56:29.745Z,7.90
2023-05-17T21:00:31.647Z,7.80
2023-05-17T21:04:33.667Z,7.70
2023-05-17T21:08:36.379Z,7.60
2023-05-17T21:12:38.043Z,7.50
2023-05-17T21:16:39.772Z,7.40
2023-05-17T21:20:41.670Z,7.30
2023-05-17T21:24:43.344Z,7.30
2023-05-17T21:28:45.015Z,7.20
2023-05-17T21:32:46.885Z,7.20
2023-05-17T21:36:48.655Z,7.10
2023-05-17T21:40:50.583Z,7.00
2023-05-17T21:44:52.296Z,7.00
2023-05-17T21:48:54.022Z,7.00
2023-05-17T21:52:56.013Z,7.00
2023-05-17T21:56:57.711Z,7.10
2023-05-17T22:00:59.449Z,7.10
2023-05-17T22:05:01.503Z,7.10
2023-05-17T22:09:03.220Z,7.10
2023-05-17T22:13:05.954Z,7.00
2023-05-17T22:17:08.473Z,7.00
2023-05-17T22:21:14.314Z,7.00
2023-05-17T22:25:17.596Z,6.90
2023-05-17T22:29:19.497Z,6.80
2023-05-17T22:33:22.270Z,6.70
2023-05-17T22:37:24.017Z,6.60
2023-05-17T22:41:26.982Z,6.60
2023-05-17T22:45:32.930Z,6.50
2023-05-17T22:49:35.637Z,6.40
2023-05-17T22:53:37.796Z,6.30
2023-05-17T22:57:39.509Z,6.20
2023-05-17T23:01:41.278Z,6.10
2023-05-17T23:05:43.361Z,6.00
2023-05-17T23:09:45.103Z,6.00
2023-05-17T23:13:47.123Z,5.90
2023-05-17T23:17:48.879Z,5.90
2023-05-17T23:21:50.702Z,5.80
2023-05-17T23:25:52.463Z,5.70
2023-05-17T23:29:55.073Z,5.70
2023-05-17T23:33:56.823Z,5.60
2023-05-17T23:37:58.575Z,5.60
2023-05-17T23:42:00.396Z,5.50
2023-05-17T23:46:03.224Z,5.50
2023-05-17T23:50:05.353Z,5.50
2023-05-17T23:54:07.082Z,5.50
2023-05-17T23:58:08.735Z,5.60
